sensor_id;sensor_type;location;lat;lon;timestamp;temperature;humidity
17146;DHT22;8688;54.444;18.444;2022-12-18T00:01:15;-5.60;1.00
17146;DHT22;8688;54.444;18.444;2022-12-18T00:03:43;-5.70;1.00
17146;DHT22;8688;54.444;18.444;2022-12-18T00:06:10;-5.70;1.00
17146;DHT22;8688;54.444;18.444;2022-12-18T00:08:39;-5.70;1.00
17146;DHT22;8688;54.444;18.444;2022-12-18T00:11:11;-5.70;1.00
17146;DHT22;8688;54.444;18.444;2022-12-18T00:13:39;-5.80;1.00
17146;DHT22;8688;54.444;18.444;2022-12-18T00:16:08;-5.80;1.00
17146;DHT22;8688;54.444;18.444;2022-12-18T00:18:37;-5.90;1.00
17146;DHT22;8688;54.444;18.444;2022-12-18T00:21:06;-5.80;1.00
17146;DHT22;8688;54.444;18.444;2022-12-18T00:23:35;-5.70;6.10
17146;DHT22;8688;54.444;18.444;2022-12-18T00:26:05;-5.70;25.30
17146;DHT22;8688;54.444;18.444;2022-12-18T00:28:34;-5.70;38.10
17146;DHT22;8688;54.444;18.444;2022-12-18T00:31:02;-5.60;53.90
17146;DHT22;8688;54.444;18.444;2022-12-18T00:33:30;-5.60;72.00
17146;DHT22;8688;54.444;18.444;2022-12-18T00:36:01;-5.60;86.10
17146;DHT22;8688;54.444;18.444;2022-12-18T00:38:28;-5.60;91.50
17146;DHT22;8688;54.444;18.444;2022-12-18T00:40:56;-5.50;94.60
17146;DHT22;8688;54.444;18.444;2022-12-18T00:43:24;-5.60;91.00
17146;DHT22;8688;54.444;18.444;2022-12-18T00:45:52;-5.60;77.30
17146;DHT22;8688;54.444;18.444;2022-12-18T00:48:20;-5.60;65.00
17146;DHT22;8688;54.444;18.444;2022-12-18T00:50:48;-5.70;63.70
17146;DHT22;8688;54.444;18.444;2022-12-18T00:53:15;-5.80;41.50
17146;DHT22;8688;54.444;18.444;2022-12-18T00:55:43;-5.80;22.40
17146;DHT22;8688;54.444;18.444;2022-12-18T00:58:11;-5.90;11.30
17146;DHT22;8688;54.444;18.444;2022-12-18T01:00:39;-6.00;1.00
17146;DHT22;8688;54.444;18.444;2022-12-18T01:03:10;-6.00;1.00
17146;DHT22;8688;54.444;18.444;2022-12-18T01:05:40;-6.10;1.00
17146;DHT22;8688;54.444;18.444;2022-12-18T01:08:07;-6.10;1.00
17146;DHT22;8688;54.444;18.444;2022-12-18T01:10:35;-6.10;1.00
17146;DHT22;8688;54.444;18.444;2022-12-18T01:13:03;-6.20;1.00
17146;DHT22;8688;54.444;18.444;2022-12-18T01:15:30;-6.20;1.00
17146;DHT22;8688;54.444;18.444;2022-12-18T01:17:58;-6.30;1.00
17146;DHT22;8688;54.444;18.444;2022-12-18T01:20:27;-6.40;1.00
17146;DHT22;8688;54.444;18.444;2022-12-18T01:22:54;-6.40;1.00
17146;DHT22;8688;54.444;18.444;2022-12-18T01:25:22;-6.40;1.00
17146;DHT22;8688;54.444;18.444;2022-12-18T01:27:49;-6.40;1.00
17146;DHT22;8688;54.444;18.444;2022-12-18T01:30:17;-6.40;1.00
17146;DHT22;8688;54.444;18.444;2022-12-18T01:32:45;-6.40;1.00
17146;DHT22;8688;54.444;18.444;2022-12-18T01:35:12;-6.40;1.00
17146;DHT22;8688;54.444;18.444;2022-12-18T01:37:41;-6.40;1.00
17146;DHT22;8688;54.444;18.444;2022-12-18T01:40:09;-6.40;1.00
17146;DHT22;8688;54.444;18.444;2022-12-18T01:42:38;-6.40;1.00
17146;DHT22;8688;54.444;18.444;2022-12-18T01:45:22;-6.40;1.00
17146;DHT22;8688;54.444;18.444;2022-12-18T01:47:52;-6.50;1.00
17146;DHT22;8688;54.444;18.444;2022-12-18T01:50:22;-6.50;1.00
17146;DHT22;8688;54.444;18.444;2022-12-18T01:52:53;-6.50;1.00
17146;DHT22;8688;54.444;18.444;2022-12-18T01:55:24;-6.60;1.00
17146;DHT22;8688;54.444;18.444;2022-12-18T01:57:55;-6.70;1.00
17146;DHT22;8688;54.444;18.444;2022-12-18T02:00:25;-6.70;1.00
17146;DHT22;8688;54.444;18.444;2022-12-18T02:02:53;-6.70;1.00
17146;DHT22;8688;54.444;18.444;2022-12-18T02:05:29;-6.80;1.00
17146;DHT22;8688;54.444;18.444;2022-12-18T02:08:09;-6.80;1.00
17146;DHT22;8688;54.444;18.444;2022-12-18T02:10:43;-6.70;1.00
17146;DHT22;8688;54.444;18.444;2022-12-18T02:13:17;-6.80;1.00
17146;DHT22;8688;54.444;18.444;2022-12-18T02:15:54;-6.80;1.00
17146;DHT22;8688;54.444;18.444;2022-12-18T02:18:26;-6.70;1.00
17146;DHT22;8688;54.444;18.444;2022-12-18T02:21:00;-6.70;1.00
17146;DHT22;8688;54.444;18.444;2022-12-18T02:23:45;-6.70;1.00
17146;DHT22;8688;54.444;18.444;2022-12-18T02:26:23;-6.70;1.00
17146;DHT22;8688;54.444;18.444;2022-12-18T02:28:56;-6.70;1.00
17146;DHT22;8688;54.444;18.444;2022-12-18T02:31:28;-6.80;1.00
17146;DHT22;8688;54.444;18.444;2022-12-18T02:34:00;-6.80;1.00
17146;DHT22;8688;54.444;18.444;2022-12-18T02:36:29;-6.90;1.00
17146;DHT22;8688;54.444;18.444;2022-12-18T02:38:58;-6.90;1.00
17146;DHT22;8688;54.444;18.444;2022-12-18T02:41:28;-6.90;1.00
17146;DHT22;8688;54.444;18.444;2022-12-18T02:43:58;-6.90;1.00
17146;DHT22;8688;54.444;18.444;2022-12-18T02:46:33;-6.90;1.00
17146;DHT22;8688;54.444;18.444;2022-12-18T02:49:08;-6.90;1.00
17146;DHT22;8688;54.444;18.444;2022-12-18T02:51:47;-7.00;1.00
17146;DHT22;8688;54.444;18.444;2022-12-18T02:54:23;-7.00;1.00
17146;DHT22;8688;54.444;18.444;2022-12-18T02:56:58;-7.10;1.00
17146;DHT22;8688;54.444;18.444;2022-12-18T02:59:33;-7.10;1.00
17146;DHT22;8688;54.444;18.444;2022-12-18T03:02:09;-7.10;1.00
17146;DHT22;8688;54.444;18.444;2022-12-18T03:04:42;-7.10;1.00
17146;DHT22;8688;54.444;18.444;2022-12-18T03:07:16;-7.20;1.00
17146;DHT22;8688;54.444;18.444;2022-12-18T03:09:49;-7.20;1.00
17146;DHT22;8688;54.444;18.444;2022-12-18T03:12:21;-7.30;1.00
17146;DHT22;8688;54.444;18.444;2022-12-18T03:14:52;-7.40;1.00
17146;DHT22;8688;54.444;18.444;2022-12-18T03:17:25;-7.50;1.00
17146;DHT22;8688;54.444;18.444;2022-12-18T03:19:56;-7.50;1.00
17146;DHT22;8688;54.444;18.444;2022-12-18T03:22:26;-7.50;1.00
17146;DHT22;8688;54.444;18.444;2022-12-18T03:24:56;-7.50;1.00
17146;DHT22;8688;54.444;18.444;2022-12-18T03:27:27;-7.40;1.00
17146;DHT22;8688;54.444;18.444;2022-12-18T03:30:01;-7.20;1.00
17146;DHT22;8688;54.444;18.444;2022-12-18T03:32:38;-7.10;1.00
17146;DHT22;8688;54.444;18.444;2022-12-18T03:35:07;-6.90;1.00
17146;DHT22;8688;54.444;18.444;2022-12-18T03:37:36;-6.60;1.00
17146;DHT22;8688;54.444;18.444;2022-12-18T03:40:05;-6.30;1.00
17146;DHT22;8688;54.444;18.444;2022-12-18T03:42:39;-6.10;1.00
17146;DHT22;8688;54.444;18.444;2022-12-18T03:45:14;-5.90;28.00
17146;DHT22;8688;54.444;18.444;2022-12-18T03:47:55;-5.70;65.70
17146;DHT22;8688;54.444;18.444;2022-12-18T03:50:31;-5.70;91.50
17146;DHT22;8688;54.444;18.444;2022-12-18T03:53:09;-5.60;99.90
17146;DHT22;8688;54.444;18.444;2022-12-18T03:55:42;-5.50;99.90
17146;DHT22;8688;54.444;18.444;2022-12-18T03:58:14;-5.40;99.90
17146;DHT22;8688;54.444;18.444;2022-12-18T04:00:44;-5.30;99.90
17146;DHT22;8688;54.444;18.444;2022-12-18T04:03:14;-5.30;99.90
17146;DHT22;8688;54.444;18.444;2022-12-18T04:05:42;-5.20;99.90
17146;DHT22;8688;54.444;18.444;2022-12-18T04:08:11;-5.20;99.90
17146;DHT22;8688;54.444;18.444;2022-12-18T04:10:39;-5.20;99.90
17146;DHT22;8688;54.444;18.444;2022-12-18T04:13:07;-5.10;99.90
17146;DHT22;8688;54.444;18.444;2022-12-18T04:15:37;-5.10;99.90
17146;DHT22;8688;54.444;18.444;2022-12-18T04:18:05;-5.00;99.90
17146;DHT22;8688;54.444;18.444;2022-12-18T04:20:32;-5.00;99.90
17146;DHT22;8688;54.444;18.444;2022-12-18T04:23:00;-5.00;99.90
17146;DHT22;8688;54.444;18.444;2022-12-18T04:25:27;-4.90;99.90
17146;DHT22;8688;54.444;18.444;2022-12-18T04:27:54;-4.90;99.90
17146;DHT22;8688;54.444;18.444;2022-12-18T04:30:22;-4.90;99.90
17146;DHT22;8688;54.444;18.444;2022-12-18T04:32:51;-4.90;99.90
17146;DHT22;8688;54.444;18.444;2022-12-18T04:35:18;-4.80;99.90
17146;DHT22;8688;54.444;18.444;2022-12-18T04:37:46;-4.90;99.90
17146;DHT22;8688;54.444;18.444;2022-12-18T04:40:13;-4.90;99.90
17146;DHT22;8688;54.444;18.444;2022-12-18T04:42:41;-5.00;99.90
17146;DHT22;8688;54.444;18.444;2022-12-18T04:45:09;-5.00;99.90
17146;DHT22;8688;54.444;18.444;2022-12-18T04:47:37;-5.00;99.90
17146;DHT22;8688;54.444;18.444;2022-12-18T04:50:06;-5.00;99.90
17146;DHT22;8688;54.444;18.444;2022-12-18T04:52:34;-5.00;99.90
17146;DHT22;8688;54.444;18.444;2022-12-18T04:55:02;-5.00;99.90
17146;DHT22;8688;54.444;18.444;2022-12-18T04:57:30;-5.00;99.90
17146;DHT22;8688;54.444;18.444;2022-12-18T04:59:57;-5.00;99.90
17146;DHT22;8688;54.444;18.444;2022-12-18T05:02:25;-5.00;99.90
17146;DHT22;8688;54.444;18.444;2022-12-18T05:04:52;-5.10;99.90
17146;DHT22;8688;54.444;18.444;2022-12-18T05:07:21;-5.20;99.90
17146;DHT22;8688;54.444;18.444;2022-12-18T05:09:48;-5.30;99.90
17146;DHT22;8688;54.444;18.444;2022-12-18T05:12:16;-5.40;99.90
17146;DHT22;8688;54.444;18.444;2022-12-18T05:14:43;-5.50;93.40
17146;DHT22;8688;54.444;18.444;2022-12-18T05:17:11;-5.50;89.30
17146;DHT22;8688;54.444;18.444;2022-12-18T05:19:38;-5.50;84.70
17146;DHT22;8688;54.444;18.444;2022-12-18T05:22:07;-5.50;94.50
17146;DHT22;8688;54.444;18.444;2022-12-18T05:24:36;-5.50;99.90
17146;DHT22;8688;54.444;18.444;2022-12-18T05:27:03;-5.50;99.90
17146;DHT22;8688;54.444;18.444;2022-12-18T05:29:31;-5.50;99.90
17146;DHT22;8688;54.444;18.444;2022-12-18T05:31:58;-5.50;99.90
17146;DHT22;8688;54.444;18.444;2022-12-18T05:34:25;-5.50;97.60
17146;DHT22;8688;54.444;18.444;2022-12-18T05:36:53;-5.50;93.90
17146;DHT22;8688;54.444;18.444;2022-12-18T05:39:20;-5.60;96.40
17146;DHT22;8688;54.444;18.444;2022-12-18T05:41:49;-5.50;99.00
17146;DHT22;8688;54.444;18.444;2022-12-18T05:44:17;-5.50;99.30
17146;DHT22;8688;54.444;18.444;2022-12-18T05:46:44;-5.50;99.00
17146;DHT22;8688;54.444;18.444;2022-12-18T05:49:12;-5.50;99.90
17146;DHT22;8688;54.444;18.444;2022-12-18T05:51:39;-5.50;99.90
17146;DHT22;8688;54.444;18.444;2022-12-18T05:54:06;-5.50;99.90
17146;DHT22;8688;54.444;18.444;2022-12-18T05:56:34;-5.50;99.90
17146;DHT22;8688;54.444;18.444;2022-12-18T05:59:03;-5.50;99.90
17146;DHT22;8688;54.444;18.444;2022-12-18T06:01:30;-5.50;99.90
17146;DHT22;8688;54.444;18.444;2022-12-18T06:03:58;-5.60;95.40
17146;DHT22;8688;54.444;18.444;2022-12-18T06:06:26;-5.60;91.50
17146;DHT22;8688;54.444;18.444;2022-12-18T06:08:54;-5.60;74.50
17146;DHT22;8688;54.444;18.444;2022-12-18T06:11:23;-5.70;72.60
17146;DHT22;8688;54.444;18.444;2022-12-18T06:13:52;-5.70;72.60
17146;DHT22;8688;54.444;18.444;2022-12-18T06:16:21;-5.70;67.90
17146;DHT22;8688;54.444;18.444;2022-12-18T06:18:49;-5.70;60.80
17146;DHT22;8688;54.444;18.444;2022-12-18T06:21:16;-5.70;57.80
17146;DHT22;8688;54.444;18.444;2022-12-18T06:23:43;-5.70;58.40
17146;DHT22;8688;54.444;18.444;2022-12-18T06:26:12;-5.70;55.60
17146;DHT22;8688;54.444;18.444;2022-12-18T06:28:40;-5.70;45.10
17146;DHT22;8688;54.444;18.444;2022-12-18T06:31:08;-5.90;12.90
17146;DHT22;8688;54.444;18.444;2022-12-18T06:33:38;-6.00;1.00
17146;DHT22;8688;54.444;18.444;2022-12-18T06:36:07;-6.10;1.00
17146;DHT22;8688;54.444;18.444;2022-12-18T06:38:38;-6.20;1.00
17146;DHT22;8688;54.444;18.444;2022-12-18T06:41:07;-6.30;1.00
17146;DHT22;8688;54.444;18.444;2022-12-18T06:43:34;-6.30;1.00
17146;DHT22;8688;54.444;18.444;2022-12-18T06:46:03;-6.40;1.00
17146;DHT22;8688;54.444;18.444;2022-12-18T06:48:31;-6.30;1.00
17146;DHT22;8688;54.444;18.444;2022-12-18T06:51:00;-6.40;1.00
17146;DHT22;8688;54.444;18.444;2022-12-18T06:53:28;-6.40;1.00
17146;DHT22;8688;54.444;18.444;2022-12-18T06:56:00;-6.50;1.00
17146;DHT22;8688;54.444;18.444;2022-12-18T06:58:28;-6.60;1.00
17146;DHT22;8688;54.444;18.444;2022-12-18T07:01:00;-6.80;1.00
17146;DHT22;8688;54.444;18.444;2022-12-18T07:03:28;-6.90;1.00
17146;DHT22;8688;54.444;18.444;2022-12-18T07:05:55;-7.00;1.00
17146;DHT22;8688;54.444;18.444;2022-12-18T07:08:24;-7.10;1.00
17146;DHT22;8688;54.444;18.444;2022-12-18T07:10:52;-7.10;1.00
17146;DHT22;8688;54.444;18.444;2022-12-18T07:13:20;-7.20;1.00
17146;DHT22;8688;54.444;18.444;2022-12-18T07:15:47;-7.20;1.00
17146;DHT22;8688;54.444;18.444;2022-12-18T07:18:15;-7.10;1.00
17146;DHT22;8688;54.444;18.444;2022-12-18T07:20:42;-7.00;1.00
17146;DHT22;8688;54.444;18.444;2022-12-18T07:23:09;-7.10;1.00
17146;DHT22;8688;54.444;18.444;2022-12-18T07:25:38;-7.20;1.00
17146;DHT22;8688;54.444;18.444;2022-12-18T07:28:06;-7.40;1.00
17146;DHT22;8688;54.444;18.444;2022-12-18T07:30:33;-7.60;1.00
17146;DHT22;8688;54.444;18.444;2022-12-18T07:33:03;-7.60;1.00
17146;DHT22;8688;54.444;18.444;2022-12-18T07:35:32;-7.60;1.00
17146;DHT22;8688;54.444;18.444;2022-12-18T07:37:59;-7.60;1.00
17146;DHT22;8688;54.444;18.444;2022-12-18T07:40:27;-7.50;1.00
17146;DHT22;8688;54.444;18.444;2022-12-18T07:42:56;-7.50;1.00
17146;DHT22;8688;54.444;18.444;2022-12-18T07:45:23;-7.40;1.00
17146;DHT22;8688;54.444;18.444;2022-12-18T07:47:50;-7.40;1.00
17146;DHT22;8688;54.444;18.444;2022-12-18T07:50:18;-7.20;1.00
17146;DHT22;8688;54.444;18.444;2022-12-18T07:52:45;-7.20;1.00
17146;DHT22;8688;54.444;18.444;2022-12-18T07:55:13;-7.10;1.00
17146;DHT22;8688;54.444;18.444;2022-12-18T07:57:41;-7.10;1.00
17146;DHT22;8688;54.444;18.444;2022-12-18T08:00:11;-7.10;1.00
17146;DHT22;8688;54.444;18.444;2022-12-18T08:02:39;-7.30;1.00
17146;DHT22;8688;54.444;18.444;2022-12-18T08:05:07;-7.40;1.00
17146;DHT22;8688;54.444;18.444;2022-12-18T08:07:35;-7.40;1.00
17146;DHT22;8688;54.444;18.444;2022-12-18T08:10:02;-7.30;1.00
17146;DHT22;8688;54.444;18.444;2022-12-18T08:12:30;-7.30;1.00
17146;DHT22;8688;54.444;18.444;2022-12-18T08:14:57;-7.10;1.00
17146;DHT22;8688;54.444;18.444;2022-12-18T08:17:26;-7.10;1.00
17146;DHT22;8688;54.444;18.444;2022-12-18T08:19:53;-7.00;1.00
17146;DHT22;8688;54.444;18.444;2022-12-18T08:22:21;-7.00;1.00
17146;DHT22;8688;54.444;18.444;2022-12-18T08:24:48;-6.90;1.00
17146;DHT22;8688;54.444;18.444;2022-12-18T08:27:16;-6.90;1.00
17146;DHT22;8688;54.444;18.444;2022-12-18T08:29:43;-6.90;1.00
17146;DHT22;8688;54.444;18.444;2022-12-18T08:32:10;-6.80;1.00
17146;DHT22;8688;54.444;18.444;2022-12-18T08:34:39;-6.70;1.00
17146;DHT22;8688;54.444;18.444;2022-12-18T08:37:07;-6.60;1.00
17146;DHT22;8688;54.444;18.444;2022-12-18T08:39:34;-6.60;1.00
17146;DHT22;8688;54.444;18.444;2022-12-18T08:42:01;-6.60;1.00
17146;DHT22;8688;54.444;18.444;2022-12-18T08:44:46;-6.50;1.00
17146;DHT22;8688;54.444;18.444;2022-12-18T08:47:14;-6.50;1.00
17146;DHT22;8688;54.444;18.444;2022-12-18T08:49:43;-6.40;1.00
17146;DHT22;8688;54.444;18.444;2022-12-18T08:52:10;-6.40;1.00
17146;DHT22;8688;54.444;18.444;2022-12-18T08:54:37;-6.30;1.00
17146;DHT22;8688;54.444;18.444;2022-12-18T08:57:05;-6.20;1.00
17146;DHT22;8688;54.444;18.444;2022-12-18T08:59:32;-6.20;1.00
17146;DHT22;8688;54.444;18.444;2022-12-18T09:02:00;-6.00;1.00
17146;DHT22;8688;54.444;18.444;2022-12-18T09:04:27;-6.00;1.00
17146;DHT22;8688;54.444;18.444;2022-12-18T09:06:56;-5.80;14.70
17146;DHT22;8688;54.444;18.444;2022-12-18T09:09:23;-5.70;47.40
17146;DHT22;8688;54.444;18.444;2022-12-18T09:11:51;-5.60;65.20
17146;DHT22;8688;54.444;18.444;2022-12-18T09:14:18;-5.50;91.80
17146;DHT22;8688;54.444;18.444;2022-12-18T09:16:46;-5.40;99.90
17146;DHT22;8688;54.444;18.444;2022-12-18T09:19:13;-5.20;99.90
17146;DHT22;8688;54.444;18.444;2022-12-18T09:21:41;-5.10;99.90
17146;DHT22;8688;54.444;18.444;2022-12-18T09:24:12;-5.00;99.90
17146;DHT22;8688;54.444;18.444;2022-12-18T09:26:40;-4.90;99.90
17146;DHT22;8688;54.444;18.444;2022-12-18T09:29:07;-4.80;99.90
17146;DHT22;8688;54.444;18.444;2022-12-18T09:31:36;-4.60;99.90
17146;DHT22;8688;54.444;18.444;2022-12-18T09:34:06;-4.50;99.90
17146;DHT22;8688;54.444;18.444;2022-12-18T09:36:34;-4.40;99.90
17146;DHT22;8688;54.444;18.444;2022-12-18T09:39:02;-4.40;99.90
17146;DHT22;8688;54.444;18.444;2022-12-18T09:41:40;-4.30;99.90
17146;DHT22;8688;54.444;18.444;2022-12-18T09:44:16;-4.20;94.30
17146;DHT22;8688;54.444;18.444;2022-12-18T09:46:48;-4.20;74.50
17146;DHT22;8688;54.444;18.444;2022-12-18T09:49:19;-4.10;44.90
17146;DHT22;8688;54.444;18.444;2022-12-18T09:51:52;-4.00;19.50
17146;DHT22;8688;54.444;18.444;2022-12-18T09:54:22;-4.00;1.00
17146;DHT22;8688;54.444;18.444;2022-12-18T09:56:52;-3.90;1.00
17146;DHT22;8688;54.444;18.444;2022-12-18T09:59:25;-3.90;1.00
17146;DHT22;8688;54.444;18.444;2022-12-18T10:01:53;-3.90;1.00
17146;DHT22;8688;54.444;18.444;2022-12-18T10:04:21;-3.80;1.00
17146;DHT22;8688;54.444;18.444;2022-12-18T10:06:54;-3.80;1.00
17146;DHT22;8688;54.444;18.444;2022-12-18T10:09:30;-3.70;1.00
17146;DHT22;8688;54.444;18.444;2022-12-18T10:12:08;-3.70;1.00
17146;DHT22;8688;54.444;18.444;2022-12-18T10:14:43;-3.60;1.00
17146;DHT22;8688;54.444;18.444;2022-12-18T10:17:22;-3.60;1.00
17146;DHT22;8688;54.444;18.444;2022-12-18T10:19:55;-3.50;1.00
17146;DHT22;8688;54.444;18.444;2022-12-18T10:22:36;-3.50;1.00
17146;DHT22;8688;54.444;18.444;2022-12-18T10:25:18;-3.50;1.00
17146;DHT22;8688;54.444;18.444;2022-12-18T10:27:49;-3.40;1.00
17146;DHT22;8688;54.444;18.444;2022-12-18T10:30:22;-3.30;1.00
17146;DHT22;8688;54.444;18.444;2022-12-18T10:32:51;-3.30;1.00
17146;DHT22;8688;54.444;18.444;2022-12-18T10:35:22;-3.30;1.00
17146;DHT22;8688;54.444;18.444;2022-12-18T10:38:07;-3.20;1.00
17146;DHT22;8688;54.444;18.444;2022-12-18T10:40:53;-3.20;1.00
17146;DHT22;8688;54.444;18.444;2022-12-18T10:43:24;-3.10;1.00
17146;DHT22;8688;54.444;18.444;2022-12-18T10:46:01;-3.10;1.00
17146;DHT22;8688;54.444;18.444;2022-12-18T10:48:30;-3.10;1.00
17146;DHT22;8688;54.444;18.444;2022-12-18T10:50:58;-3.10;1.00
17146;DHT22;8688;54.444;18.444;2022-12-18T10:53:28;-3.00;1.00
17146;DHT22;8688;54.444;18.444;2022-12-18T10:56:02;-3.00;1.00
17146;DHT22;8688;54.444;18.444;2022-12-18T10:58:33;-2.90;1.00
17146;DHT22;8688;54.444;18.444;2022-12-18T11:01:10;-2.90;1.00
17146;DHT22;8688;54.444;18.444;2022-12-18T11:03:40;-2.90;1.00
17146;DHT22;8688;54.444;18.444;2022-12-18T11:06:10;-2.90;1.00
17146;DHT22;8688;54.444;18.444;2022-12-18T11:08:38;-2.80;1.00
17146;DHT22;8688;54.444;18.444;2022-12-18T11:11:15;-2.80;1.00
17146;DHT22;8688;54.444;18.444;2022-12-18T11:14:00;-2.70;1.00
17146;DHT22;8688;54.444;18.444;2022-12-18T11:16:30;-2.70;1.00
17146;DHT22;8688;54.444;18.444;2022-12-18T11:19:14;-2.60;1.00
17146;DHT22;8688;54.444;18.444;2022-12-18T11:21:44;-2.60;1.00
17146;DHT22;8688;54.444;18.444;2022-12-18T11:24:20;-2.60;1.00
17146;DHT22;8688;54.444;18.444;2022-12-18T11:26:48;-2.50;1.00
17146;DHT22;8688;54.444;18.444;2022-12-18T11:29:22;-2.50;1.00
17146;DHT22;8688;54.444;18.444;2022-12-18T11:31:50;-2.40;99.90
17146;DHT22;8688;54.444;18.444;2022-12-18T11:34:22;-2.40;99.90
17146;DHT22;8688;54.444;18.444;2022-12-18T11:36:53;-2.30;99.90
17146;DHT22;8688;54.444;18.444;2022-12-18T11:39:31;-2.20;99.90
17146;DHT22;8688;54.444;18.444;2022-12-18T11:42:05;-2.20;99.90
17146;DHT22;8688;54.444;18.444;2022-12-18T11:44:46;-2.10;99.90
17146;DHT22;8688;54.444;18.444;2022-12-18T11:47:22;-2.10;99.90
17146;DHT22;8688;54.444;18.444;2022-12-18T11:49:53;-2.10;99.90
17146;DHT22;8688;54.444;18.444;2022-12-18T11:52:25;-2.00;99.90
17146;DHT22;8688;54.444;18.444;2022-12-18T11:54:56;-2.00;99.90
17146;DHT22;8688;54.444;18.444;2022-12-18T11:57:34;-2.00;99.90
17146;DHT22;8688;54.444;18.444;2022-12-18T12:00:13;-2.00;99.90
17146;DHT22;8688;54.444;18.444;2022-12-18T12:05:48;-2.00;99.90
17146;DHT22;8688;54.444;18.444;2022-12-18T12:08:27;-1.90;99.90
17146;DHT22;8688;54.444;18.444;2022-12-18T12:10:59;-1.90;90.00
17146;DHT22;8688;54.444;18.444;2022-12-18T12:13:42;-1.90;92.30
17146;DHT22;8688;54.444;18.444;2022-12-18T12:16:18;-1.90;92.10
17146;DHT22;8688;54.444;18.444;2022-12-18T12:19:06;-1.90;61.90
17146;DHT22;8688;54.444;18.444;2022-12-18T12:21:39;-1.90;15.90
17146;DHT22;8688;54.444;18.444;2022-12-18T12:24:22;-1.80;92.70
17146;DHT22;8688;54.444;18.444;2022-12-18T12:27:01;-1.80;32.80
17146;DHT22;8688;54.444;18.444;2022-12-18T12:29:41;-1.80;72.00
17146;DHT22;8688;54.444;18.444;2022-12-18T12:32:22;-1.80;19.70
17146;DHT22;8688;54.444;18.444;2022-12-18T12:35:05;-1.70;73.30
17146;DHT22;8688;54.444;18.444;2022-12-18T12:37:41;-1.70;1.00
17146;DHT22;8688;54.444;18.444;2022-12-18T12:40:14;-1.70;1.00
17146;DHT22;8688;54.444;18.444;2022-12-18T12:42:47;-1.70;1.00
17146;DHT22;8688;54.444;18.444;2022-12-18T12:45:37;-1.70;23.00
17146;DHT22;8688;54.444;18.444;2022-12-18T12:48:13;-1.70;1.00
17146;DHT22;8688;54.444;18.444;2022-12-18T12:50:43;-1.70;1.00
17146;DHT22;8688;54.444;18.444;2022-12-18T12:53:22;-1.70;1.00
17146;DHT22;8688;54.444;18.444;2022-12-18T12:55:51;-1.70;1.00
17146;DHT22;8688;54.444;18.444;2022-12-18T12:58:26;-1.70;1.00
17146;DHT22;8688;54.444;18.444;2022-12-18T13:01:09;-1.70;1.00
17146;DHT22;8688;54.444;18.444;2022-12-18T13:03:48;-1.70;1.00
17146;DHT22;8688;54.444;18.444;2022-12-18T13:06:27;-1.80;1.00
17146;DHT22;8688;54.444;18.444;2022-12-18T13:08:57;-1.80;1.00
17146;DHT22;8688;54.444;18.444;2022-12-18T13:11:32;-1.80;1.00
17146;DHT22;8688;54.444;18.444;2022-12-18T13:14:28;-1.80;7.30
17146;DHT22;8688;54.444;18.444;2022-12-18T13:20:15;-1.90;61.40
17146;DHT22;8688;54.444;18.444;2022-12-18T13:22:45;-2.00;53.80
17146;DHT22;8688;54.444;18.444;2022-12-18T13:25:34;-2.00;61.50
17146;DHT22;8688;54.444;18.444;2022-12-18T13:28:05;-2.00;69.10
17146;DHT22;8688;54.444;18.444;2022-12-18T13:30:54;-2.00;99.90
17146;DHT22;8688;54.444;18.444;2022-12-18T13:33:49;-2.00;99.90
17146;DHT22;8688;54.444;18.444;2022-12-18T13:36:29;-2.00;99.90
17146;DHT22;8688;54.444;18.444;2022-12-18T13:39:22;-2.00;99.90
17146;DHT22;8688;54.444;18.444;2022-12-18T13:41:51;-2.10;99.90
17146;DHT22;8688;54.444;18.444;2022-12-18T13:44:33;-2.10;99.90
17146;DHT22;8688;54.444;18.444;2022-12-18T13:47:02;-2.20;99.90
17146;DHT22;8688;54.444;18.444;2022-12-18T13:49:37;-2.20;99.90
17146;DHT22;8688;54.444;18.444;2022-12-18T13:52:17;-2.30;99.90
17146;DHT22;8688;54.444;18.444;2022-12-18T13:54:48;-2.30;99.90
17146;DHT22;8688;54.444;18.444;2022-12-18T13:57:28;-2.40;99.90
17146;DHT22;8688;54.444;18.444;2022-12-18T13:59:56;-2.40;99.90
17146;DHT22;8688;54.444;18.444;2022-12-18T14:02:25;-2.50;99.90
17146;DHT22;8688;54.444;18.444;2022-12-18T14:04:53;-2.60;99.90
17146;DHT22;8688;54.444;18.444;2022-12-18T14:07:24;-2.60;99.90
17146;DHT22;8688;54.444;18.444;2022-12-18T14:09:53;-2.70;99.90
17146;DHT22;8688;54.444;18.444;2022-12-18T14:12:25;-2.80;99.90
17146;DHT22;8688;54.444;18.444;2022-12-18T14:15:21;-2.80;99.90
17146;DHT22;8688;54.444;18.444;2022-12-18T14:17:53;-2.80;99.90
17146;DHT22;8688;54.444;18.444;2022-12-18T14:20:22;-2.90;99.90
17146;DHT22;8688;54.444;18.444;2022-12-18T14:22:52;-3.00;99.90
17146;DHT22;8688;54.444;18.444;2022-12-18T14:25:21;-2.90;99.90
17146;DHT22;8688;54.444;18.444;2022-12-18T14:27:51;-3.00;99.90
17146;DHT22;8688;54.444;18.444;2022-12-18T14:30:30;-3.00;99.90
17146;DHT22;8688;54.444;18.444;2022-12-18T14:33:06;-3.10;99.90
17146;DHT22;8688;54.444;18.444;2022-12-18T14:35:37;-3.10;99.90
17146;DHT22;8688;54.444;18.444;2022-12-18T14:38:20;-3.10;99.90
17146;DHT22;8688;54.444;18.444;2022-12-18T14:40:53;-3.20;99.90
17146;DHT22;8688;54.444;18.444;2022-12-18T14:43:21;-3.30;99.90
17146;DHT22;8688;54.444;18.444;2022-12-18T14:45:49;-3.30;99.90
17146;DHT22;8688;54.444;18.444;2022-12-18T14:48:19;-3.40;99.90
17146;DHT22;8688;54.444;18.444;2022-12-18T14:50:56;-3.50;99.90
17146;DHT22;8688;54.444;18.444;2022-12-18T14:53:35;-3.50;99.90
17146;DHT22;8688;54.444;18.444;2022-12-18T14:56:15;-3.60;99.90
17146;DHT22;8688;54.444;18.444;2022-12-18T14:58:54;-3.70;99.90
17146;DHT22;8688;54.444;18.444;2022-12-18T15:01:25;-3.80;99.90
17146;DHT22;8688;54.444;18.444;2022-12-18T15:03:54;-3.90;99.90
17146;DHT22;8688;54.444;18.444;2022-12-18T15:06:30;-4.00;99.90
17146;DHT22;8688;54.444;18.444;2022-12-18T15:09:01;-4.10;99.90
17146;DHT22;8688;54.444;18.444;2022-12-18T15:11:33;-4.20;99.90
17146;DHT22;8688;54.444;18.444;2022-12-18T15:17:14;-4.30;99.90
17146;DHT22;8688;54.444;18.444;2022-12-18T15:19:44;-4.30;99.90
17146;DHT22;8688;54.444;18.444;2022-12-18T15:22:32;-4.40;99.90
17146;DHT22;8688;54.444;18.444;2022-12-18T15:25:20;-4.40;99.90
17146;DHT22;8688;54.444;18.444;2022-12-18T15:27:52;-4.40;99.90
17146;DHT22;8688;54.444;18.444;2022-12-18T15:30:22;-4.40;99.90
17146;DHT22;8688;54.444;18.444;2022-12-18T15:32:51;-4.40;99.90
17146;DHT22;8688;54.444;18.444;2022-12-18T15:35:23;-4.50;99.90
17146;DHT22;8688;54.444;18.444;2022-12-18T15:37:52;-4.60;99.90
17146;DHT22;8688;54.444;18.444;2022-12-18T15:40:23;-4.60;99.90
17146;DHT22;8688;54.444;18.444;2022-12-18T15:42:53;-4.60;99.90
17146;DHT22;8688;54.444;18.444;2022-12-18T15:45:39;-4.70;99.90
17146;DHT22;8688;54.444;18.444;2022-12-18T15:48:18;-4.70;99.90
17146;DHT22;8688;54.444;18.444;2022-12-18T15:50:57;-4.70;99.90
17146;DHT22;8688;54.444;18.444;2022-12-18T15:53:29;-4.80;99.90
17146;DHT22;8688;54.444;18.444;2022-12-18T15:56:00;-4.80;99.90
17146;DHT22;8688;54.444;18.444;2022-12-18T15:58:45;-4.80;99.90
17146;DHT22;8688;54.444;18.444;2022-12-18T16:01:14;-4.80;99.90
17146;DHT22;8688;54.444;18.444;2022-12-18T16:03:42;-4.80;99.90
17146;DHT22;8688;54.444;18.444;2022-12-18T16:06:11;-4.90;99.90
17146;DHT22;8688;54.444;18.444;2022-12-18T16:08:39;-4.90;99.90
17146;DHT22;8688;54.444;18.444;2022-12-18T16:11:20;-4.80;99.90
17146;DHT22;8688;54.444;18.444;2022-12-18T16:14:05;-4.80;99.90